Time;durP1;ratioP1;P1;durP2;ratioP2;P2;SDS_P1;SDS_P2;PMS_P1;PMS_P2;Temp;Humidity;BMP_temperature;BMP_pressure;BME280_temperature;BME280_humidity;BME280_pressure;Samples;Min_cycle;Max_cycle;Signal;HPM_P1;HPM_P2
2022/10/21 07:58:03;;;;;;;6.07;4.32;;;14.70;99.90;;;;;;5148844;27;20433;-66
2022/10/21 08:00:29;;;;;;;9.52;4.45;;;14.70;99.90;;;;;;5114331;28;20032;-68
2022/10/21 08:02:55;;;;;;;9.18;4.45;;;14.80;99.90;;;;;;5115372;28;20115;-66
2022/10/21 08:05:22;;;;;;;8.15;3.83;;;14.90;99.90;;;;;;5114846;28;20034;-65
2022/10/21 08:07:48;;;;;;;10.32;4.07;;;15.00;99.90;;;;;;5115073;28;20315;-64
2022/10/21 08:10:14;;;;;;;7.05;4.00;;;15.20;99.90;;;;;;5114884;28;20122;-64
2022/10/21 08:12:40;;;;;;;9.75;4.25;;;15.30;99.90;;;;;;5097031;28;20028;-64
2022/10/21 08:15:06;;;;;;;15.20;4.00;;;15.30;99.90;;;;;;5113904;28;20042;-65
2022/10/21 08:17:32;;;;;;;19.98;5.35;;;15.40;99.90;;;;;;5114603;28;20044;-65
2022/10/21 08:19:58;;;;;;;18.38;4.20;;;15.40;99.90;;;;;;5114594;28;20127;-66
2022/10/21 08:22:23;;;;;;;18.05;4.20;;;15.60;99.90;;;;;;5113736;28;20446;-64
2022/10/21 08:24:49;;;;;;;7.50;3.42;;;15.80;99.90;;;;;;5114379;28;20071;-65
2022/10/21 08:27:15;;;;;;;5.78;3.05;;;16.00;99.90;;;;;;5114456;28;20027;-65
2022/10/21 08:29:41;;;;;;;6.65;3.53;;;16.20;99.90;;;;;;5113591;28;20185;-66
2022/10/21 08:32:07;;;;;;;8.25;3.60;;;16.40;99.90;;;;;;5114035;28;20089;-65
2022/10/21 08:34:32;;;;;;;14.90;4.68;;;16.60;99.90;;;;;;5113489;28;20088;-65
2022/10/21 08:36:58;;;;;;;15.93;4.32;;;16.80;99.90;;;;;;5114752;28;20039;-65
2022/10/21 08:39:24;;;;;;;15.15;4.55;;;17.00;99.90;;;;;;5113502;28;20055;-67
2022/10/21 08:42:07;;;;;;;10.10;3.60;;;17.10;99.90;;;;;;5114211;28;20032;-66
2022/10/21 08:44:45;;;;;;;;;;;17.20;99.90;;;;;;5114986;28;20024;-65
2022/10/21 08:47:30;;;;;;;58.15;7.90;;;17.20;99.90;;;;;;5114645;28;20290;-65
2022/10/21 08:50:08;;;;;;;16.58;4.63;;;17.20;99.90;;;;;;5113986;28;20031;-66
2022/10/21 08:52:42;;;;;;;17.15;4.40;;;17.40;99.90;;;;;;5114561;28;20040;-66
2022/10/21 08:55:35;;;;;;;11.27;3.42;;;17.40;99.90;;;;;;5114052;28;20031;-64
2022/10/21 08:58:03;;;;;;;17.55;3.67;;;17.10;99.90;;;;;;5112983;28;20043;-65
2022/10/21 09:00:44;;;;;;;10.35;2.70;;;16.80;99.90;;;;;;5113118;28;20045;-64
2022/10/21 09:03:17;;;;;;;5.25;1.92;;;16.80;99.90;;;;;;5113122;28;20028;-65
2022/10/21 09:05:56;;;;;;;2.95;1.58;;;17.00;99.90;;;;;;5113755;28;20036;-66
2022/10/21 09:08:41;;;;;;;2.80;1.75;;;17.00;99.90;;;;;;5105690;28;20028;-64
2022/10/21 09:11:53;;;;;;;16.05;2.80;;;17.10;99.90;;;;;;5099797;28;20031;-65
2022/10/21 09:14:28;;;;;;;7.10;1.70;;;17.20;99.90;;;;;;5080818;28;20088;-64
2022/10/21 09:17:30;;;;;;;6.88;1.85;;;17.20;99.90;;;;;;5082115;28;20413;-65
2022/10/21 09:20:05;;;;;;;5.78;1.30;;;17.20;99.90;;;;;;5099153;28;20024;-66
2022/10/21 09:22:59;;;;;;;6.68;1.30;;;17.40;99.90;;;;;;5099794;28;20115;-67
2022/10/21 09:25:32;;;;;;;5.15;1.40;;;17.50;99.90;;;;;;5098967;28;20298;-65
2022/10/21 09:28:01;;;;;;;2.90;1.10;;;17.60;99.90;;;;;;5099975;28;20297;-65
2022/10/21 09:30:27;;;;;;;2.60;1.25;;;17.80;99.90;;;;;;5098841;28;20024;-71
2022/10/21 09:32:58;;;;;;;4.72;1.17;;;17.80;99.90;;;;;;5082046;28;20085;-65
2022/10/21 09:35:39;;;;;;;2.65;1.08;;;17.90;99.90;;;;;;5081907;28;20020;-65
2022/10/21 09:38:22;;;;;;;2.92;0.90;;;17.90;99.90;;;;;;5099521;28;20093;-64
2022/10/21 09:40:57;;;;;;;6.75;1.20;;;17.90;99.90;;;;;;5098751;28;20035;-66
2022/10/21 09:43:25;;;;;;;2.72;1.00;;;18.00;99.90;;;;;;5100428;28;20411;-65
2022/10/21 09:45:52;;;;;;;3.35;1.00;;;18.00;99.90;;;;;;5099309;28;20024;-65
2022/10/21 09:48:20;;;;;;;4.95;1.58;;;18.00;99.90;;;;;;5099336;28;20082;-66
2022/10/21 09:50:51;;;;;;;3.97;1.10;;;18.20;99.90;;;;;;5098451;28;20024;-62
2022/10/21 09:53:21;;;;;;;4.00;0.93;;;18.40;99.90;;;;;;5099698;28;20040;-65
2022/10/21 09:55:51;;;;;;;1.38;0.75;;;18.40;99.90;;;;;;5098799;28;20036;-63
2022/10/21 09:58:25;;;;;;;10.25;1.80;;;18.50;99.90;;;;;;5098282;28;20032;-65
2022/10/21 10:00:52;;;;;;;7.47;1.00;;;18.60;99.90;;;;;;5099391;28;20375;-64
2022/10/21 10:03:30;;;;;;;6.63;1.13;;;18.60;99.90;;;;;;5098996;28;20016;-64
2022/10/21 10:05:56;;;;;;;5.43;0.80;;;18.60;99.90;;;;;;5098287;28;20032;-64
2022/10/21 10:08:36;;;;;;;3.97;0.93;;;18.60;99.90;;;;;;5098139;28;20413;-64
2022/10/21 10:11:11;;;;;;;4.68;0.90;;;18.90;99.90;;;;;;5098894;28;20028;-65
2022/10/21 10:13:55;;;;;;;4.10;0.88;;;18.90;99.90;;;;;;5098808;28;20028;-66
2022/10/21 10:16:25;;;;;;;1.52;0.68;;;18.90;99.90;;;;;;5098883;28;20031;-64
2022/10/21 10:19:09;;;;;;;1.70;0.60;;;19.20;99.90;;;;;;5098429;28;20043;-63
2022/10/21 10:21:34;;;;;;;1.27;0.40;;;19.50;99.90;;;;;;5098219;28;20310;-66
2022/10/21 10:24:01;;;;;;;2.17;0.40;;;19.70;99.90;;;;;;5097816;28;20035;-66
2022/10/21 10:26:37;;;;;;;2.00;0.40;;;19.90;99.90;;;;;;5098642;28;20032;-64
2022/10/21 10:29:09;;;;;;;1.90;0.30;;;20.30;99.90;;;;;;5097759;28;20040;-65
2022/10/21 10:31:35;;;;;;;2.08;0.50;;;20.40;99.90;;;;;;5078323;28;20287;-66
2022/10/21 10:34:07;;;;;;;2.95;0.40;;;20.50;99.90;;;;;;5077565;28;20098;-67
2022/10/21 10:36:36;;;;;;;1.83;0.40;;;20.50;99.90;;;;;;5077294;28;20052;-65
2022/10/21 10:39:06;;;;;;;7.10;1.35;;;20.50;99.90;;;;;;5077300;28;20308;-65
2022/10/21 10:41:37;;;;;;;5.60;0.65;;;20.70;99.90;;;;;;5078035;28;20112;-67
2022/10/21 10:44:23;;;;;;;1.90;0.38;;;20.50;99.90;;;;;;5077439;28;20137;-66
2022/10/21 10:46:58;;;;;;;0.93;0.40;;;20.40;99.90;;;;;;5060611;28;20044;-65
2022/10/21 10:49:25;;;;;;;2.58;0.70;;;20.80;99.90;;;;;;5078006;28;20028;-65
2022/10/21 10:52:09;;;;;;;4.13;0.40;;;21.60;99.90;;;;;;5077084;28;20040;-66
2022/10/21 10:54:36;;;;;;;1.58;0.30;;;21.20;99.90;;;;;;5077023;28;20028;-65
2022/10/21 10:57:10;;;;;;;2.40;0.45;;;20.60;99.90;;;;;;5076649;28;20061;-66
2022/10/21 10:59:42;;;;;;;2.80;0.57;;;20.20;99.90;;;;;;5077529;28;20036;-64
2022/10/21 11:02:11;;;;;;;5.05;0.55;;;20.20;99.90;;;;;;5077705;28;20426;-66
2022/10/21 11:04:41;;;;;;;1.00;0.50;;;20.10;99.90;;;;;;5076829;28;20410;-64
2022/10/21 11:07:39;;;;;;;3.63;0.43;;;20.30;99.90;;;;;;5077529;28;20110;-65
2022/10/21 11:10:29;;;;;;;0.77;0.50;;;20.50;99.90;;;;;;5076628;28;20028;-63
2022/10/21 11:12:55;;;;;;;1.40;0.57;;;20.60;99.90;;;;;;5060124;28;20048;-63
2022/10/21 11:15:43;;;;;;;3.42;0.52;;;20.50;99.90;;;;;;5077317;28;20032;-66
2022/10/21 11:18:38;;;;;;;3.67;0.50;;;20.10;99.90;;;;;;5076986;28;20036;-63
2022/10/21 11:21:13;;;;;;;2.15;0.57;;;19.90;99.90;;;;;;5077081;28;20048;-66
2022/10/21 11:23:54;;;;;;;1.17;0.68;;;19.90;99.90;;;;;;5077200;28;20396;-62
2022/10/21 11:26:30;;;;;;;1.65;0.80;;;20.00;99.90;;;;;;5076521;28;20304;-63
2022/10/21 11:29:33;;;;;;;3.35;0.77;;;20.20;99.90;;;;;;5077424;28;20085;-64
2022/10/21 11:32:49;;;;;;;4.10;0.60;;;20.20;99.90;;;;;;5065087;28;20167;-63
2022/10/21 11:35:23;;;;;;;2.72;0.60;;;20.10;99.90;;;;;;5065243;28;20102;-65
2022/10/21 11:38:10;;;;;;;16.77;1.90;;;20.10;99.90;;;;;;5077123;28;20085;-64
2022/10/21 11:40:39;;;;;;;3.35;0.80;;;20.10;99.90;;;;;;5059591;28;20024;-66
2022/10/21 11:43:24;;;;;;;11.55;1.33;;;19.90;99.90;;;;;;5077024;28;20131;-67
2022/10/21 11:46:14;;;;;;;6.60;0.95;;;20.10;99.90;;;;;;5077059;28;20028;-67
2022/10/21 11:48:55;;;;;;;4.60;1.10;;;19.70;99.90;;;;;;5076914;28;20028;-65
2022/10/21 11:51:39;;;;;;;3.28;0.80;;;19.80;99.90;;;;;;5076312;28;20273;-64
2022/10/21 11:54:27;;;;;;;0.95;0.73;;;20.00;99.90;;;;;;5076904;28;20024;-63
2022/10/21 11:57:23;;;;;;;3.35;1.08;;;20.00;99.90;;;;;;5059586;28;20062;-63
2022/10/21 12:00:00;;;;;;;2.22;0.80;;;20.00;99.90;;;;;;5076412;28;20029;-64
2022/10/21 12:02:48;;;;;;;2.53;0.90;;;20.10;99.90;;;;;;5076946;28;20025;-63
2022/10/21 12:05:31;;;;;;;1.65;0.68;;;20.30;99.90;;;;;;5076906;28;20109;-63
2022/10/21 12:08:19;;;;;;;1.70;0.70;;;20.70;99.90;;;;;;5076000;28;20098;-64
2022/10/21 12:11:18;;;;;;;3.75;0.70;;;20.50;99.90;;;;;;5076803;28;20090;-64
2022/10/21 12:13:51;;;;;;;9.25;1.00;;;20.30;99.90;;;;;;5072838;28;20362;-64
2022/10/21 12:16:19;;;;;;;5.47;1.02;;;20.40;99.90;;;;;;5075915;28;20056;-64
2022/10/21 12:19:04;;;;;;;5.78;1.02;;;20.30;99.90;;;;;;5076650;28;20028;-65
2022/10/21 12:21:34;;;;;;;8.43;1.17;;;20.60;99.90;;;;;;5076654;28;20056;-64
2022/10/21 12:24:29;;;;;;;2.63;0.90;;;20.80;99.90;;;;;;5076607;28;20040;-65
2022/10/21 12:27:28;;;;;;;2.40;0.85;;;20.80;99.90;;;;;;5076634;28;20102;-64
2022/10/21 12:30:09;;;;;;;2.13;0.75;;;20.90;99.90;;;;;;5076453;28;20308;-65
2022/10/21 12:32:59;;;;;;;2.50;0.80;;;20.90;99.90;;;;;;5076670;28;20281;-64
2022/10/21 12:35:52;;;;;;;1.67;0.68;;;20.90;99.90;;;;;;5075806;28;20028;-64
2022/10/21 12:38:42;;;;;;;2.55;0.57;;;20.80;99.90;;;;;;5076523;28;20032;-61
2022/10/21 12:41:23;;;;;;;1.70;0.63;;;20.90;99.90;;;;;;5077050;28;20047;-63
2022/10/21 12:43:52;;;;;;;3.38;0.88;;;20.80;99.90;;;;;;5077776;28;20036;-65
2022/10/21 12:46:24;;;;;;;3.60;0.85;;;20.90;99.90;;;;;;5080235;28;20021;-65
2022/10/21 12:48:51;;;;;;;;;;;20.90;99.90;;;;;;5079840;28;20115;-64
2022/10/21 12:51:26;;;;;;;1.75;0.60;;;20.90;99.90;;;;;;5080053;28;20296;-65
2022/10/21 12:53:55;;;;;;;3.83;0.77;;;21.20;99.90;;;;;;5062576;28;20462;-65
2022/10/21 12:56:43;;;;;;;3.10;0.70;;;21.50;99.90;;;;;;5062349;28;20082;-65
2022/10/21 12:59:28;;;;;;;4.45;0.90;;;21.60;99.90;;;;;;5062487;28;20064;-65
2022/10/21 13:02:09;;;;;;;2.05;0.70;;;21.70;99.90;;;;;;5079296;28;20158;-64
2022/10/21 13:04:34;;;;;;;2.70;0.70;;;21.70;99.90;;;;;;5079385;28;20035;-66
2022/10/21 13:07:12;;;;;;;0.98;0.50;;;21.60;99.90;;;;;;5079856;28;20024;-65
2022/10/21 13:09:50;;;;;;;2.95;0.70;;;21.70;99.90;;;;;;5078987;28;20357;-64
2022/10/21 13:12:24;;;;;;;2.25;0.80;;;21.70;99.90;;;;;;5079685;28;20032;-65
2022/10/21 13:14:51;;;;;;;1.95;0.80;;;21.60;99.90;;;;;;5078951;28;20296;-62
2022/10/21 13:17:20;;;;;;;4.05;0.80;;;21.50;99.90;;;;;;5078868;28;20029;-64
2022/10/21 13:19:50;;;;;;;2.55;0.63;;;21.50;99.90;;;;;;5079591;28;20031;-67
2022/10/21 13:22:36;;;;;;;1.52;0.60;;;21.50;99.90;;;;;;5080484;28;20134;-66
2022/10/21 13:25:22;;;;;;;3.20;0.60;;;21.60;99.90;;;;;;5078822;28;20051;-68
2022/10/21 13:28:01;;;;;;;2.00;0.68;;;21.60;99.90;;;;;;5078784;28;20032;-66
2022/10/21 13:30:49;;;;;;;1.77;0.90;;;21.60;99.90;;;;;;5078795;28;20094;-63
2022/10/21 13:33:21;;;;;;;16.70;1.88;;;21.50;99.90;;;;;;5079523;28;20037;-66
2022/10/21 13:35:59;;;;;;;;;;;21.50;99.90;;;;;;5079637;28;20090;-64
2022/10/21 13:38:29;;;;;;;4.50;0.50;;;21.70;99.90;;;;;;5078902;28;19919;-66
2022/10/21 13:41:04;;;;;;;1.80;0.70;;;21.70;99.90;;;;;;5079466;28;20115;-65
2022/10/21 13:43:38;;;;;;;2.10;0.70;;;21.70;99.90;;;;;;5078400;28;20098;-61
2022/10/21 13:46:14;;;;;;;2.63;0.60;;;21.60;99.90;;;;;;5079083;28;20036;-64
2022/10/21 13:48:43;;;;;;;4.25;0.73;;;21.50;99.90;;;;;;5079107;28;20024;-64
2022/10/21 13:51:24;;;;;;;2.33;0.50;;;21.60;99.90;;;;;;5078330;28;20098;-63
2022/10/21 13:53:57;;;;;;;2.65;0.60;;;21.60;99.90;;;;;;5078898;28;20043;-65
2022/10/21 13:56:33;;;;;;;;;;;21.70;99.90;;;;;;5079042;28;20053;-64
2022/10/21 13:58:59;;;;;;;2.00;0.40;;;21.60;99.90;;;;;;5078940;28;19965;-62
2022/10/21 14:01:28;;;;;;;2.28;0.38;;;21.70;99.90;;;;;;5061281;28;20024;-65
2022/10/21 14:04:10;;;;;;;0.90;0.55;;;21.80;99.90;;;;;;5077982;28;20029;-65
2022/10/21 14:06:49;;;;;;;1.63;0.43;;;22.60;99.90;;;;;;5078805;28;20108;-61
2022/10/21 14:09:50;;;;;;;3.92;0.63;;;23.40;99.90;;;;;;5079057;28;20051;-60
2022/10/21 14:12:26;;;;;;;1.42;0.50;;;23.10;99.90;;;;;;5078655;28;20029;-64
2022/10/21 14:14:56;;;;;;;1.02;0.43;;;22.60;99.90;;;;;;5077862;28;20302;-65
2022/10/21 14:17:25;;;;;;;2.78;0.57;;;22.20;99.90;;;;;;5078419;28;20400;-64
2022/10/21 14:19:57;;;;;;;2.08;0.52;;;21.90;99.90;;;;;;5078424;28;20024;-64
2022/10/21 14:22:24;;;;;;;1.77;0.40;;;21.80;99.90;;;;;;5078857;28;20331;-63
2022/10/21 14:24:55;;;;;;;2.30;0.40;;;21.60;99.90;;;;;;5078232;28;20272;-61
2022/10/21 14:27:31;;;;;;;3.25;0.60;;;21.50;99.90;;;;;;5078386;28;20086;-63
2022/10/21 14:29:59;;;;;;;3.90;0.60;;;21.40;99.90;;;;;;5078248;28;20032;-65
2022/10/21 14:32:26;;;;;;;3.45;0.50;;;21.40;99.90;;;;;;5060729;28;20064;-64
2022/10/21 14:35:02;;;;;;;0.85;0.50;;;21.30;99.90;;;;;;5077392;28;20046;-62
2022/10/21 14:37:35;;;;;;;1.27;0.43;;;21.20;99.90;;;;;;5077389;28;20051;-65
2022/10/21 14:40:20;;;;;;;1.95;0.40;;;21.30;99.90;;;;;;5078117;28;20059;-64
2022/10/21 14:42:47;;;;;;;2.22;0.60;;;21.20;99.90;;;;;;5060581;28;20078;-64
2022/10/21 14:45:28;;;;;;;0.90;0.47;;;21.20;99.90;;;;;;5077036;28;20032;-64
2022/10/21 14:48:07;;;;;;;3.10;0.40;;;21.10;99.90;;;;;;5077206;28;20072;-64
2022/10/21 14:50:33;;;;;;;4.97;0.40;;;21.20;99.90;;;;;;5077830;28;20391;-63
2022/10/21 14:52:59;;;;;;;3.05;0.50;;;21.10;99.90;;;;;;5043837;28;20028;-65
2022/10/21 14:55:28;;;;;;;1.92;0.40;;;21.10;99.90;;;;;;5076928;28;20036;-64
2022/10/21 14:58:09;;;;;;;2.90;0.50;;;21.10;99.90;;;;;;5077556;28;20055;-64
2022/10/21 15:00:40;;;;;;;2.75;0.38;;;21.10;99.90;;;;;;5077054;28;20326;-63
2022/10/21 15:03:10;;;;;;;1.88;0.50;;;21.00;99.90;;;;;;5078152;28;20043;-60
2022/10/21 15:05:42;;;;;;;1.73;0.30;;;21.00;99.90;;;;;;5077174;28;20052;-62
2022/10/21 15:08:20;;;;;;;1.70;0.50;;;21.00;99.90;;;;;;5076755;28;20029;-64
2022/10/21 15:11:04;;;;;;;2.58;0.45;;;21.00;99.90;;;;;;5060019;28;20285;-63
2022/10/21 15:13:31;;;;;;;1.67;0.60;;;21.00;99.90;;;;;;5076641;28;20055;-64
2022/10/21 15:15:58;;;;;;;0.98;0.43;;;21.00;99.90;;;;;;5077287;28;20056;-64
2022/10/21 15:18:33;;;;;;;2.45;0.55;;;21.00;99.90;;;;;;5077324;28;20296;-65
2022/10/21 15:21:05;;;;;;;2.30;0.50;;;20.90;99.90;;;;;;5076413;28;20020;-66
2022/10/21 15:23:36;;;;;;;3.22;0.70;;;20.90;99.90;;;;;;5059888;28;20020;-62
2022/10/21 15:26:09;;;;;;;3.90;0.50;;;21.10;99.90;;;;;;5077237;28;20067;-64
2022/10/21 15:28:36;;;;;;;4.07;0.90;;;21.20;99.90;;;;;;5077023;28;20349;-64
2022/10/21 15:31:06;;;;;;;2.83;0.68;;;21.10;99.90;;;;;;5077168;28;20017;-64
2022/10/21 15:33:32;;;;;;;0.88;0.70;;;20.90;99.90;;;;;;5077233;28;20036;-63
2022/10/21 15:36:12;;;;;;;2.72;0.47;;;20.80;99.90;;;;;;5076972;28;20296;-65
2022/10/21 15:38:45;;;;;;;1.23;0.45;;;20.60;99.90;;;;;;5060479;28;20419;-63
2022/10/21 15:41:24;;;;;;;2.95;0.57;;;20.60;99.90;;;;;;5076325;28;20028;-65
2022/10/21 15:44:00;;;;;;;2.38;0.60;;;20.50;99.90;;;;;;5076198;28;20021;-63
2022/10/21 15:46:28;;;;;;;1.50;0.43;;;20.50;99.90;;;;;;5077066;28;20116;-65
2022/10/21 15:48:54;;;;;;;1.13;0.50;;;20.40;99.90;;;;;;5076236;28;20029;-64
2022/10/21 15:51:20;;;;;;;2.90;0.50;;;20.40;99.90;;;;;;5076247;28;20043;-64
2022/10/21 15:53:46;;;;;;;3.83;0.57;;;20.30;99.90;;;;;;5076171;28;20040;-64
2022/10/21 15:56:17;;;;;;;5.20;0.63;;;20.30;99.90;;;;;;5076560;28;20051;-65
2022/10/21 15:58:43;;;;;;;2.92;0.52;;;20.20;99.90;;;;;;5076813;28;20120;-64
2022/10/21 16:01:15;;;;;;;2.55;0.70;;;20.00;99.90;;;;;;5076842;28;20092;-63
2022/10/21 16:03:42;;;;;;;4.95;0.90;;;20.00;99.90;;;;;;5059369;28;20063;-64
2022/10/21 16:06:18;;;;;;;1.60;0.60;;;19.90;99.90;;;;;;5076113;28;20037;-65
2022/10/21 16:08:44;;;;;;;1.77;0.60;;;19.80;99.90;;;;;;5077308;28;20032;-64
2022/10/21 16:11:18;;;;;;;1.08;0.50;;;19.70;99.90;;;;;;5076807;28;20021;-63
2022/10/21 16:13:44;;;;;;;7.40;0.93;;;19.70;99.90;;;;;;5059355;28;20108;-64
2022/10/21 16:16:19;;;;;;;8.40;0.98;;;19.60;99.90;;;;;;5076594;28;20127;-65
2022/10/21 16:18:45;;;;;;;1.60;0.70;;;19.60;99.90;;;;;;5078761;28;20024;-65
2022/10/21 16:21:13;;;;;;;3.42;0.70;;;19.50;99.90;;;;;;5080646;28;20028;-65
2022/10/21 16:23:39;;;;;;;0.98;0.55;;;19.40;99.90;;;;;;5079940;28;20029;-65
2022/10/21 16:26:19;;;;;;;2.33;0.85;;;19.40;99.90;;;;;;5079907;28;20455;-64
2022/10/21 16:28:44;;;;;;;1.80;0.70;;;19.30;99.90;;;;;;5080488;28;20047;-63
2022/10/21 16:31:13;;;;;;;1.00;0.55;;;19.30;99.90;;;;;;5062816;28;20029;-64
2022/10/21 16:33:40;;;;;;;2.15;0.75;;;19.10;99.90;;;;;;5079658;28;20040;-63
2022/10/21 16:36:20;;;;;;;5.57;1.17;;;19.10;99.90;;;;;;5079671;28;20064;-62
2022/10/21 16:38:47;;;;;;;3.25;1.27;;;19.10;99.90;;;;;;5080777;28;20024;-64
2022/10/21 16:41:15;;;;;;;5.60;0.90;;;19.10;99.90;;;;;;5079776;28;20072;-65
2022/10/21 16:43:41;;;;;;;1.77;0.80;;;19.00;99.90;;;;;;5080251;28;20029;-64
2022/10/21 16:46:25;;;;;;;3.30;0.90;;;19.00;99.90;;;;;;5063039;28;20044;-64
2022/10/21 16:48:52;;;;;;;4.07;0.57;;;18.90;99.90;;;;;;5080267;28;20101;-64
2022/10/21 16:51:21;;;;;;;1.50;0.70;;;18.90;99.90;;;;;;5045973;28;20039;-64
2022/10/21 16:53:47;;;;;;;3.92;0.95;;;18.90;99.90;;;;;;5079255;28;20056;-62
2022/10/21 16:56:13;;;;;;;2.25;0.80;;;18.80;99.90;;;;;;5079041;28;20358;-64
2022/10/21 16:58:38;;;;;;;2.05;0.75;;;18.80;99.90;;;;;;5096322;28;20036;-64
2022/10/21 17:01:07;;;;;;;3.60;0.70;;;18.80;99.90;;;;;;5079917;28;20033;-64
2022/10/21 17:03:34;;;;;;;4.10;0.77;;;18.80;99.90;;;;;;5079869;28;20115;-62
2022/10/21 17:06:00;;;;;;;2.15;0.70;;;18.70;99.90;;;;;;5062355;28;20273;-64
2022/10/21 17:08:26;;;;;;;2.80;0.77;;;18.70;99.90;;;;;;5079832;28;20339;-64
2022/10/21 17:10:51;;;;;;;5.45;0.90;;;18.60;99.90;;;;;;5079805;28;20055;-66
2022/10/21 17:13:17;;;;;;;3.10;0.73;;;18.60;99.90;;;;;;5078951;28;20028;-64
2022/10/21 17:15:43;;;;;;;4.25;0.98;;;18.60;99.90;;;;;;5079660;28;20038;-65
2022/10/21 17:18:09;;;;;;;2.60;0.88;;;18.60;99.90;;;;;;5078931;28;20047;-63
2022/10/21 17:20:35;;;;;;;5.47;0.93;;;18.50;99.90;;;;;;5095812;28;20060;-65
2022/10/21 17:23:02;;;;;;;3.25;0.90;;;18.50;99.90;;;;;;5078755;28;20033;-64
2022/10/21 17:25:28;;;;;;;2.90;0.80;;;18.50;99.90;;;;;;5079458;28;20498;-65
2022/10/21 17:27:55;;;;;;;2.25;0.80;;;18.50;99.90;;;;;;5079169;28;20037;-65
2022/10/21 17:30:21;;;;;;;4.13;1.00;;;18.50;99.90;;;;;;5078070;28;20034;-65
2022/10/21 17:32:47;;;;;;;2.90;1.02;;;18.50;99.90;;;;;;5079343;28;20033;-64
2022/10/21 17:35:19;;;;;;;3.88;0.90;;;18.50;99.90;;;;;;5078647;28;20277;-65
2022/10/21 17:37:49;;;;;;;6.18;1.20;;;18.40;99.90;;;;;;5078584;28;20028;-64
2022/10/21 17:40:22;;;;;;;2.42;0.90;;;18.30;99.90;;;;;;5078489;28;20037;-66
2022/10/21 17:42:49;;;;;;;3.10;0.80;;;18.30;99.90;;;;;;5078440;28;20024;-64
2022/10/21 17:45:16;;;;;;;2.22;0.65;;;18.30;99.90;;;;;;5079694;28;20257;-65
2022/10/21 17:47:42;;;;;;;5.40;0.70;;;18.30;99.90;;;;;;5078511;28;20115;-65
2022/10/21 17:50:09;;;;;;;3.13;0.85;;;18.40;99.90;;;;;;5078964;28;20046;-64
2022/10/21 17:52:36;;;;;;;3.78;0.75;;;18.40;99.90;;;;;;5078235;28;20090;-64
2022/10/21 17:55:03;;;;;;;1.75;0.57;;;18.30;99.90;;;;;;5078116;28;20081;-64
2022/10/21 17:57:32;;;;;;;4.28;0.90;;;18.20;99.90;;;;;;5077850;28;20048;-64
2022/10/21 17:59:58;;;;;;;2.35;0.90;;;18.20;99.90;;;;;;5061998;28;20036;-64
2022/10/21 18:02:27;;;;;;;2.50;1.00;;;18.30;99.90;;;;;;5061266;28;20058;-64
2022/10/21 18:04:54;;;;;;;2.50;0.82;;;18.20;99.90;;;;;;5078829;28;20107;-65
2022/10/21 18:07:21;;;;;;;4.40;1.38;;;18.20;99.90;;;;;;5078028;28;20032;-65
2022/10/21 18:09:47;;;;;;;3.45;0.88;;;18.20;99.90;;;;;;5079015;28;20044;-63
2022/10/21 18:12:13;;;;;;;2.50;1.10;;;18.20;99.90;;;;;;5061383;28;20037;-64
2022/10/21 18:14:39;;;;;;;5.38;0.95;;;18.20;99.90;;;;;;5077788;28;20447;-64
2022/10/21 18:17:07;;;;;;;3.60;0.90;;;18.10;99.90;;;;;;5077661;28;20403;-65
2022/10/21 18:19:33;;;;;;;3.33;1.20;;;18.20;99.90;;;;;;5078449;28;20055;-64
2022/10/21 18:21:59;;;;;;;4.95;1.60;;;18.20;99.90;;;;;;5079009;28;20334;-63
2022/10/21 18:24:25;;;;;;;3.15;1.08;;;18.10;99.90;;;;;;5077650;28;20021;-63
2022/10/21 18:26:50;;;;;;;2.88;1.10;;;18.00;99.90;;;;;;5078406;28;20063;-64
2022/10/21 18:29:17;;;;;;;3.65;1.30;;;18.10;99.90;;;;;;5077580;28;20047;-63
2022/10/21 18:31:43;;;;;;;3.03;1.35;;;18.00;99.90;;;;;;5077891;28;20045;-64
2022/10/21 18:34:11;;;;;;;4.60;1.30;;;17.90;99.90;;;;;;5077792;28;20036;-65
2022/10/21 18:36:37;;;;;;;4.43;1.27;;;17.90;99.90;;;;;;5078070;28;20024;-65
2022/10/21 18:39:04;;;;;;;3.03;1.20;;;17.90;99.90;;;;;;5078084;28;20362;-65
2022/10/21 18:41:30;;;;;;;1.83;1.25;;;17.90;99.90;;;;;;5076397;28;20388;-65
2022/10/21 18:44:00;;;;;;;3.75;1.05;;;17.90;99.90;;;;;;5077267;28;20017;-63
2022/10/21 18:46:30;;;;;;;4.25;1.10;;;17.80;99.90;;;;;;5077950;28;20344;-65
2022/10/21 18:48:57;;;;;;;3.28;1.25;;;17.80;99.90;;;;;;5061272;28;20072;-63
2022/10/21 18:51:23;;;;;;;3.30;1.10;;;17.80;99.90;;;;;;5077195;28;20055;-65
2022/10/21 18:53:50;;;;;;;6.18;1.42;;;17.70;99.90;;;;;;5077658;28;20032;-65
2022/10/21 18:56:16;;;;;;;2.35;1.00;;;17.70;99.90;;;;;;5076766;28;20323;-64
2022/10/21 18:58:43;;;;;;;2.63;1.17;;;17.70;99.90;;;;;;5076866;28;20145;-65
2022/10/21 19:01:11;;;;;;;4.82;1.75;;;17.60;99.90;;;;;;5076876;28;20319;-67
2022/10/21 19:03:37;;;;;;;3.78;1.27;;;17.60;99.90;;;;;;5060417;28;20103;-65
2022/10/21 19:06:27;;;;;;;5.15;1.80;;;17.70;99.90;;;;;;5076753;28;20036;-65
2022/10/21 19:08:53;;;;;;;6.00;1.42;;;17.70;99.90;;;;;;5076574;28;20130;-64
2022/10/21 19:11:18;;;;;;;4.50;1.40;;;17.60;99.90;;;;;;5076636;28;20388;-65
2022/10/21 19:13:44;;;;;;;4.95;1.38;;;17.60;99.90;;;;;;5059854;28;20032;-64
2022/10/21 19:16:10;;;;;;;4.50;1.42;;;17.60;99.90;;;;;;5077620;28;20060;-64
2022/10/21 19:18:36;;;;;;;3.50;1.50;;;17.50;99.90;;;;;;5077587;28;20032;-65
2022/10/21 19:21:03;;;;;;;3.15;1.52;;;17.50;99.90;;;;;;5076586;28;20102;-64
2022/10/21 19:23:31;;;;;;;4.47;1.50;;;17.50;99.90;;;;;;5077293;28;20103;-64
2022/10/21 19:26:08;;;;;;;5.10;1.77;;;17.50;99.90;;;;;;5076586;28;20037;-64
2022/10/21 19:28:34;;;;;;;3.92;1.70;;;17.50;99.90;;;;;;5077670;28;20384;-64
2022/10/21 19:31:00;;;;;;;6.22;2.10;;;17.50;99.90;;;;;;5076398;28;20075;-65
2022/10/21 19:33:26;;;;;;;4.90;1.70;;;17.50;99.90;;;;;;5077584;28;20020;-65
2022/10/21 19:35:52;;;;;;;4.75;1.60;;;17.50;99.90;;;;;;5076395;28;20027;-64
2022/10/21 19:38:18;;;;;;;5.78;1.90;;;17.40;99.90;;;;;;5076333;28;20028;-64
2022/10/21 19:40:44;;;;;;;4.75;1.95;;;17.40;99.90;;;;;;5077139;28;20036;-64
2022/10/21 19:43:10;;;;;;;2.55;1.50;;;17.40;99.90;;;;;;5059593;28;20379;-65
2022/10/21 19:45:36;;;;;;;5.95;2.03;;;17.40;99.90;;;;;;5077080;28;20351;-65
2022/10/21 19:48:02;;;;;;;4.72;1.83;;;17.40;99.90;;;;;;5076428;28;20292;-65
2022/10/21 19:50:28;;;;;;;4.60;1.58;;;17.40;99.90;;;;;;5076324;28;20097;-65
2022/10/21 19:52:54;;;;;;;3.60;1.48;;;17.30;99.90;;;;;;5076900;28;20025;-64
2022/10/21 19:55:20;;;;;;;5.13;1.70;;;17.40;99.90;;;;;;5060139;28;20431;-65
2022/10/21 19:57:46;;;;;;;6.15;1.90;;;17.40;99.90;;;;;;5075920;28;20085;-65
2022/10/21 20:00:12;;;;;;;6.28;1.70;;;17.40;99.90;;;;;;5059517;28;20110;-65
2022/10/21 20:02:41;;;;;;;4.82;1.83;;;17.30;99.90;;;;;;5076545;28;20025;-66
2022/10/21 20:05:08;;;;;;;6.18;1.92;;;17.30;99.90;;;;;;5043025;28;20025;-66
2022/10/21 20:07:37;;;;;;;5.32;1.80;;;17.20;99.90;;;;;;5060090;28;20064;-65
2022/10/21 20:10:04;;;;;;;3.58;1.50;;;17.10;99.90;;;;;;5075980;28;20043;-65
2022/10/21 20:12:30;;;;;;;4.72;2.30;;;17.10;99.90;;;;;;5092989;28;20044;-65
2022/10/21 20:14:56;;;;;;;5.43;2.30;;;17.00;99.90;;;;;;5075985;28;20273;-65
2022/10/21 20:17:22;;;;;;;9.45;2.22;;;16.90;99.90;;;;;;5075933;28;20052;-65
2022/10/21 20:19:51;;;;;;;5.15;2.25;;;16.90;99.90;;;;;;5075816;28;20427;-66
2022/10/21 20:22:17;;;;;;;5.53;2.10;;;16.80;99.90;;;;;;5059184;28;20020;-66
2022/10/21 20:24:43;;;;;;;5.03;2.53;;;16.80;99.90;;;;;;5076469;28;20184;-65
2022/10/21 20:27:08;;;;;;;6.95;2.25;;;16.80;99.90;;;;;;5076453;28;20043;-63
2022/10/21 20:29:34;;;;;;;7.30;2.72;;;16.80;99.90;;;;;;5075794;28;20036;-64
2022/10/21 20:32:00;;;;;;;6.85;3.00;;;16.80;99.90;;;;;;5059189;28;20039;-64
2022/10/21 20:34:26;;;;;;;9.00;3.60;;;16.80;99.90;;;;;;5059008;28;20029;-64
2022/10/21 20:36:52;;;;;;;6.53;2.90;;;16.80;99.90;;;;;;5076257;28;20040;-64
2022/10/21 20:39:18;;;;;;;7.18;3.10;;;16.80;99.90;;;;;;5075728;28;20081;-64
2022/10/21 20:41:47;;;;;;;6.40;3.22;;;16.80;99.90;;;;;;5042470;28;20035;-65
2022/10/21 20:44:15;;;;;;;6.22;2.75;;;16.70;99.90;;;;;;5075979;28;20033;-64
2022/10/21 20:46:41;;;;;;;8.63;3.15;;;16.80;99.90;;;;;;5076439;28;20090;-64
2022/10/21 20:49:08;;;;;;;6.10;3.10;;;16.80;99.90;;;;;;5076238;28;20035;-65
2022/10/21 20:51:37;;;;;;;7.28;2.60;;;16.70;99.90;;;;;;5058815;28;20456;-64
2022/10/21 20:54:14;;;;;;;6.18;2.72;;;16.60;99.90;;;;;;5076579;28;20032;-64
2022/10/21 20:56:40;;;;;;;7.15;3.08;;;16.60;99.90;;;;;;5076080;28;20037;-63
2022/10/21 20:59:08;;;;;;;7.15;3.20;;;16.60;99.90;;;;;;5076173;28;20029;-66
2022/10/21 21:01:37;;;;;;;5.00;2.95;;;16.50;99.90;;;;;;5076262;28;20028;-63
2022/10/21 21:04:07;;;;;;;12.55;4.15;;;16.40;99.90;;;;;;5077297;28;20292;-64
2022/10/21 21:06:38;;;;;;;7.40;3.30;;;16.40;99.90;;;;;;5079155;28;20089;-64
2022/10/21 21:09:04;;;;;;;6.25;3.20;;;16.30;99.90;;;;;;5079773;28;20276;-63
2022/10/21 21:11:30;;;;;;;9.73;3.40;;;16.30;99.90;;;;;;5079848;28;20455;-64